sensor_id;sensor_type;location;lat;lon;timestamp;P1;durP1;ratioP1;P2;durP2;ratioP2
64653;SDS011;51065;48.884;12.598;2024-03-25T00:00:22;2.38;;;1.40;;
64653;SDS011;51065;48.884;12.598;2024-03-25T00:02:50;2.83;;;1.17;;
64653;SDS011;51065;48.884;12.598;2024-03-25T00:05:16;2.40;;;1.30;;
64653;SDS011;51065;48.884;12.598;2024-03-25T00:07:47;3.67;;;1.48;;
64653;SDS011;51065;48.884;12.598;2024-03-25T00:10:14;4.68;;;1.20;;
64653;SDS011;51065;48.884;12.598;2024-03-25T00:12:40;3.95;;;1.58;;
64653;SDS011;51065;48.884;12.598;2024-03-25T00:15:06;4.20;;;1.48;;
64653;SDS011;51065;48.884;12.598;2024-03-25T00:17:32;4.57;;;1.50;;
64653;SDS011;51065;48.884;12.598;2024-03-25T00:19:58;2.75;;;1.33;;
64653;SDS011;51065;48.884;12.598;2024-03-25T00:22:24;2.83;;;1.50;;
64653;SDS011;51065;48.884;12.598;2024-03-25T00:24:50;2.13;;;1.02;;
64653;SDS011;51065;48.884;12.598;2024-03-25T00:27:16;4.07;;;1.20;;
64653;SDS011;51065;48.884;12.598;2024-03-25T00:29:43;2.03;;;1.27;;
64653;SDS011;51065;48.884;12.598;2024-03-25T00:32:09;3.75;;;1.70;;
64653;SDS011;51065;48.884;12.598;2024-03-25T00:34:35;4.32;;;1.27;;
64653;SDS011;51065;48.884;12.598;2024-03-25T00:37:02;4.10;;;1.73;;
64653;SDS011;51065;48.884;12.598;2024-03-25T00:39:28;3.53;;;1.25;;
64653;SDS011;51065;48.884;12.598;2024-03-25T00:41:57;2.85;;;1.20;;
64653;SDS011;51065;48.884;12.598;2024-03-25T00:44:23;2.25;;;1.10;;
64653;SDS011;51065;48.884;12.598;2024-03-25T00:46:49;2.90;;;1.15;;
64653;SDS011;51065;48.884;12.598;2024-03-25T00:49:15;1.38;;;1.17;;
64653;SDS011;51065;48.884;12.598;2024-03-25T00:51:41;3.63;;;1.52;;
64653;SDS011;51065;48.884;12.598;2024-03-25T00:54:07;3.35;;;1.20;;
64653;SDS011;51065;48.884;12.598;2024-03-25T00:56:32;4.63;;;1.65;;
64653;SDS011;51065;48.884;12.598;2024-03-25T00:58:58;2.58;;;1.20;;
64653;SDS011;51065;48.884;12.598;2024-03-25T01:01:27;3.15;;;1.75;;
64653;SDS011;51065;48.884;12.598;2024-03-25T01:03:54;4.25;;;1.83;;
64653;SDS011;51065;48.884;12.598;2024-03-25T01:06:19;1.63;;;1.30;;
64653;SDS011;51065;48.884;12.598;2024-03-25T01:08:45;3.95;;;1.40;;
64653;SDS011;51065;48.884;12.598;2024-03-25T01:11:11;2.25;;;1.25;;
64653;SDS011;51065;48.884;12.598;2024-03-25T01:13:36;6.07;;;1.50;;
64653;SDS011;51065;48.884;12.598;2024-03-25T01:16:03;1.77;;;1.17;;
64653;SDS011;51065;48.884;12.598;2024-03-25T01:18:28;2.33;;;1.15;;
64653;SDS011;51065;48.884;12.598;2024-03-25T01:20:54;2.88;;;1.60;;
64653;SDS011;51065;48.884;12.598;2024-03-25T01:23:20;2.80;;;1.02;;
64653;SDS011;51065;48.884;12.598;2024-03-25T01:25:45;3.20;;;0.95;;
64653;SDS011;51065;48.884;12.598;2024-03-25T01:28:11;2.75;;;1.50;;
64653;SDS011;51065;48.884;12.598;2024-03-25T01:30:40;2.28;;;1.10;;
64653;SDS011;51065;48.884;12.598;2024-03-25T01:33:05;1.98;;;0.93;;
64653;SDS011;51065;48.884;12.598;2024-03-25T01:35:31;3.15;;;1.30;;
64653;SDS011;51065;48.884;12.598;2024-03-25T01:37:56;3.28;;;1.20;;
64653;SDS011;51065;48.884;12.598;2024-03-25T01:40:22;3.72;;;1.30;;
64653;SDS011;51065;48.884;12.598;2024-03-25T01:42:55;2.10;;;1.42;;
64653;SDS011;51065;48.884;12.598;2024-03-25T01:45:25;2.53;;;1.20;;
64653;SDS011;51065;48.884;12.598;2024-03-25T01:47:52;3.13;;;1.48;;
64653;SDS011;51065;48.884;12.598;2024-03-25T01:50:18;2.47;;;1.38;;
64653;SDS011;51065;48.884;12.598;2024-03-25T01:52:44;3.83;;;1.30;;
64653;SDS011;51065;48.884;12.598;2024-03-25T01:55:11;1.50;;;1.17;;
64653;SDS011;51065;48.884;12.598;2024-03-25T01:57:45;2.63;;;1.20;;
64653;SDS011;51065;48.884;12.598;2024-03-25T02:00:12;4.78;;;1.52;;
64653;SDS011;51065;48.884;12.598;2024-03-25T02:02:39;4.20;;;1.58;;
64653;SDS011;51065;48.884;12.598;2024-03-25T02:05:12;2.53;;;1.20;;
64653;SDS011;51065;48.884;12.598;2024-03-25T02:07:40;3.10;;;1.20;;
64653;SDS011;51065;48.884;12.598;2024-03-25T02:10:07;1.48;;;1.10;;
64653;SDS011;51065;48.884;12.598;2024-03-25T02:12:39;2.83;;;1.38;;
64653;SDS011;51065;48.884;12.598;2024-03-25T02:15:09;3.53;;;1.50;;
64653;SDS011;51065;48.884;12.598;2024-03-25T02:17:35;2.15;;;1.27;;
64653;SDS011;51065;48.884;12.598;2024-03-25T02:20:02;4.10;;;1.50;;
64653;SDS011;51065;48.884;12.598;2024-03-25T02:22:28;1.85;;;1.58;;
64653;SDS011;51065;48.884;12.598;2024-03-25T02:24:56;3.38;;;1.63;;
64653;SDS011;51065;48.884;12.598;2024-03-25T02:27:23;3.28;;;1.60;;
64653;SDS011;51065;48.884;12.598;2024-03-25T02:30:07;2.55;;;1.27;;
64653;SDS011;51065;48.884;12.598;2024-03-25T02:32:34;1.83;;;1.30;;
64653;SDS011;51065;48.884;12.598;2024-03-25T02:35:01;3.50;;;1.45;;
64653;SDS011;51065;48.884;12.598;2024-03-25T02:37:35;4.97;;;1.90;;
64653;SDS011;51065;48.884;12.598;2024-03-25T02:40:03;2.30;;;1.42;;
64653;SDS011;51065;48.884;12.598;2024-03-25T02:42:30;2.78;;;1.33;;
64653;SDS011;51065;48.884;12.598;2024-03-25T02:44:57;4.20;;;1.60;;
64653;SDS011;51065;48.884;12.598;2024-03-25T02:47:23;2.60;;;1.40;;
64653;SDS011;51065;48.884;12.598;2024-03-25T02:49:49;5.55;;;1.95;;
64653;SDS011;51065;48.884;12.598;2024-03-25T02:52:14;3.13;;;1.58;;
64653;SDS011;51065;48.884;12.598;2024-03-25T02:54:40;4.15;;;1.58;;
64653;SDS011;51065;48.884;12.598;2024-03-25T02:57:06;6.75;;;1.77;;
64653;SDS011;51065;48.884;12.598;2024-03-25T02:59:31;2.20;;;1.23;;
64653;SDS011;51065;48.884;12.598;2024-03-25T03:01:57;4.03;;;1.52;;
64653;SDS011;51065;48.884;12.598;2024-03-25T03:04:22;2.42;;;1.35;;
64653;SDS011;51065;48.884;12.598;2024-03-25T03:06:48;2.75;;;1.90;;
64653;SDS011;51065;48.884;12.598;2024-03-25T03:09:14;2.30;;;1.45;;
64653;SDS011;51065;48.884;12.598;2024-03-25T03:11:40;4.50;;;1.60;;
64653;SDS011;51065;48.884;12.598;2024-03-25T03:14:06;2.85;;;1.38;;
64653;SDS011;51065;48.884;12.598;2024-03-25T03:16:31;3.47;;;1.88;;
64653;SDS011;51065;48.884;12.598;2024-03-25T03:18:57;3.78;;;1.40;;
64653;SDS011;51065;48.884;12.598;2024-03-25T03:21:22;2.33;;;1.27;;
64653;SDS011;51065;48.884;12.598;2024-03-25T03:23:48;2.72;;;1.33;;
64653;SDS011;51065;48.884;12.598;2024-03-25T03:26:14;4.15;;;1.70;;
64653;SDS011;51065;48.884;12.598;2024-03-25T03:28:40;3.78;;;1.60;;
64653;SDS011;51065;48.884;12.598;2024-03-25T03:31:06;3.13;;;1.75;;
64653;SDS011;51065;48.884;12.598;2024-03-25T03:33:32;5.38;;;2.05;;
64653;SDS011;51065;48.884;12.598;2024-03-25T03:35:57;3.97;;;1.75;;
64653;SDS011;51065;48.884;12.598;2024-03-25T03:38:23;5.05;;;1.70;;
64653;SDS011;51065;48.884;12.598;2024-03-25T03:40:56;3.63;;;1.50;;
64653;SDS011;51065;48.884;12.598;2024-03-25T03:43:25;3.85;;;1.70;;
64653;SDS011;51065;48.884;12.598;2024-03-25T03:45:50;3.50;;;1.40;;
64653;SDS011;51065;48.884;12.598;2024-03-25T03:48:16;3.70;;;1.85;;
64653;SDS011;51065;48.884;12.598;2024-03-25T03:50:42;4.28;;;1.60;;
64653;SDS011;51065;48.884;12.598;2024-03-25T03:53:08;6.97;;;1.88;;
64653;SDS011;51065;48.884;12.598;2024-03-25T03:55:33;3.20;;;1.50;;
64653;SDS011;51065;48.884;12.598;2024-03-25T03:58:00;1.38;;;1.17;;
64653;SDS011;51065;48.884;12.598;2024-03-25T04:00:25;5.97;;;1.40;;
64653;SDS011;51065;48.884;12.598;2024-03-25T04:02:51;3.45;;;1.83;;
64653;SDS011;51065;48.884;12.598;2024-03-25T04:05:17;2.75;;;1.50;;
64653;SDS011;51065;48.884;12.598;2024-03-25T04:07:43;5.15;;;1.50;;
64653;SDS011;51065;48.884;12.598;2024-03-25T04:10:09;2.83;;;1.70;;
64653;SDS011;51065;48.884;12.598;2024-03-25T04:12:35;5.45;;;1.88;;
64653;SDS011;51065;48.884;12.598;2024-03-25T04:15:04;5.90;;;1.80;;
64653;SDS011;51065;48.884;12.598;2024-03-25T04:17:30;2.90;;;1.92;;
64653;SDS011;51065;48.884;12.598;2024-03-25T04:19:58;4.28;;;1.70;;
64653;SDS011;51065;48.884;12.598;2024-03-25T04:22:25;5.15;;;1.42;;
64653;SDS011;51065;48.884;12.598;2024-03-25T04:24:51;4.65;;;1.52;;
64653;SDS011;51065;48.884;12.598;2024-03-25T04:27:17;2.75;;;1.50;;
64653;SDS011;51065;48.884;12.598;2024-03-25T04:29:45;4.72;;;1.70;;
64653;SDS011;51065;48.884;12.598;2024-03-25T04:32:11;5.57;;;1.60;;
64653;SDS011;51065;48.884;12.598;2024-03-25T04:34:37;2.70;;;1.35;;
64653;SDS011;51065;48.884;12.598;2024-03-25T04:37:03;4.90;;;1.50;;
64653;SDS011;51065;48.884;12.598;2024-03-25T04:39:29;2.55;;;1.60;;
64653;SDS011;51065;48.884;12.598;2024-03-25T04:41:55;3.60;;;1.33;;
64653;SDS011;51065;48.884;12.598;2024-03-25T04:44:21;4.13;;;1.45;;
64653;SDS011;51065;48.884;12.598;2024-03-25T04:46:47;3.80;;;1.50;;
64653;SDS011;51065;48.884;12.598;2024-03-25T04:49:13;2.40;;;1.48;;
64653;SDS011;51065;48.884;12.598;2024-03-25T04:51:38;4.30;;;1.60;;
64653;SDS011;51065;48.884;12.598;2024-03-25T04:54:04;4.82;;;1.65;;
64653;SDS011;51065;48.884;12.598;2024-03-25T04:56:30;1.75;;;1.27;;
64653;SDS011;51065;48.884;12.598;2024-03-25T04:58:56;3.25;;;1.40;;
64653;SDS011;51065;48.884;12.598;2024-03-25T05:01:26;3.25;;;1.65;;
64653;SDS011;51065;48.884;12.598;2024-03-25T05:03:52;5.30;;;1.60;;
64653;SDS011;51065;48.884;12.598;2024-03-25T05:06:18;4.88;;;1.75;;
64653;SDS011;51065;48.884;12.598;2024-03-25T05:08:44;5.82;;;1.58;;
64653;SDS011;51065;48.884;12.598;2024-03-25T05:11:10;2.45;;;1.10;;
64653;SDS011;51065;48.884;12.598;2024-03-25T05:13:36;3.95;;;1.70;;
64653;SDS011;51065;48.884;12.598;2024-03-25T05:16:01;3.20;;;1.55;;
64653;SDS011;51065;48.884;12.598;2024-03-25T05:18:27;4.68;;;1.58;;
64653;SDS011;51065;48.884;12.598;2024-03-25T05:20:52;5.88;;;1.52;;
64653;SDS011;51065;48.884;12.598;2024-03-25T05:23:18;3.80;;;1.63;;
64653;SDS011;51065;48.884;12.598;2024-03-25T05:25:43;3.22;;;1.50;;
64653;SDS011;51065;48.884;12.598;2024-03-25T05:28:09;3.63;;;1.75;;
64653;SDS011;51065;48.884;12.598;2024-03-25T05:30:35;4.22;;;1.52;;
64653;SDS011;51065;48.884;12.598;2024-03-25T05:33:01;2.33;;;1.33;;
64653;SDS011;51065;48.884;12.598;2024-03-25T05:35:26;4.60;;;1.40;;
64653;SDS011;51065;48.884;12.598;2024-03-25T05:37:52;3.72;;;1.60;;
64653;SDS011;51065;48.884;12.598;2024-03-25T05:40:18;5.63;;;1.70;;
64653;SDS011;51065;48.884;12.598;2024-03-25T05:42:44;2.67;;;1.67;;
64653;SDS011;51065;48.884;12.598;2024-03-25T05:45:10;7.28;;;2.08;;
64653;SDS011;51065;48.884;12.598;2024-03-25T05:47:36;3.15;;;1.30;;
64653;SDS011;51065;48.884;12.598;2024-03-25T05:50:01;4.63;;;1.83;;
64653;SDS011;51065;48.884;12.598;2024-03-25T05:52:30;5.47;;;1.75;;
64653;SDS011;51065;48.884;12.598;2024-03-25T05:54:56;4.05;;;1.40;;
64653;SDS011;51065;48.884;12.598;2024-03-25T05:57:22;7.28;;;1.80;;
64653;SDS011;51065;48.884;12.598;2024-03-25T05:59:48;4.28;;;1.92;;
64653;SDS011;51065;48.884;12.598;2024-03-25T06:02:14;6.28;;;1.92;;
64653;SDS011;51065;48.884;12.598;2024-03-25T06:04:39;4.00;;;1.80;;
64653;SDS011;51065;48.884;12.598;2024-03-25T06:07:05;4.95;;;1.80;;
64653;SDS011;51065;48.884;12.598;2024-03-25T06:09:31;4.25;;;1.80;;
64653;SDS011;51065;48.884;12.598;2024-03-25T06:11:56;6.35;;;1.73;;
64653;SDS011;51065;48.884;12.598;2024-03-25T06:14:22;3.85;;;1.80;;
64653;SDS011;51065;48.884;12.598;2024-03-25T06:16:48;3.75;;;1.83;;
64653;SDS011;51065;48.884;12.598;2024-03-25T06:19:13;3.25;;;2.00;;
64653;SDS011;51065;48.884;12.598;2024-03-25T06:21:39;5.15;;;2.35;;
64653;SDS011;51065;48.884;12.598;2024-03-25T06:24:05;4.38;;;1.63;;
64653;SDS011;51065;48.884;12.598;2024-03-25T06:26:30;5.88;;;2.05;;
64653;SDS011;51065;48.884;12.598;2024-03-25T06:28:56;2.53;;;1.60;;
64653;SDS011;51065;48.884;12.598;2024-03-25T06:31:25;2.88;;;1.70;;
64653;SDS011;51065;48.884;12.598;2024-03-25T06:34:09;4.63;;;2.00;;
64653;SDS011;51065;48.884;12.598;2024-03-25T06:36:43;4.72;;;1.90;;
64653;SDS011;51065;48.884;12.598;2024-03-25T06:39:09;4.35;;;1.75;;
64653;SDS011;51065;48.884;12.598;2024-03-25T06:41:35;2.53;;;1.52;;
64653;SDS011;51065;48.884;12.598;2024-03-25T06:44:01;7.85;;;2.58;;
64653;SDS011;51065;48.884;12.598;2024-03-25T06:46:30;5.72;;;1.80;;
64653;SDS011;51065;48.884;12.598;2024-03-25T06:48:56;6.13;;;2.45;;
64653;SDS011;51065;48.884;12.598;2024-03-25T06:51:21;4.30;;;1.98;;
64653;SDS011;51065;48.884;12.598;2024-03-25T06:53:47;5.20;;;1.95;;
64653;SDS011;51065;48.884;12.598;2024-03-25T06:56:12;4.63;;;2.00;;
64653;SDS011;51065;48.884;12.598;2024-03-25T06:58:38;3.80;;;1.92;;
64653;SDS011;51065;48.884;12.598;2024-03-25T07:01:04;5.70;;;1.95;;
64653;SDS011;51065;48.884;12.598;2024-03-25T07:03:32;4.30;;;1.65;;
64653;SDS011;51065;48.884;12.598;2024-03-25T07:05:59;4.28;;;2.10;;
64653;SDS011;51065;48.884;12.598;2024-03-25T07:08:26;4.60;;;1.63;;
64653;SDS011;51065;48.884;12.598;2024-03-25T07:10:52;5.68;;;1.88;;
64653;SDS011;51065;48.884;12.598;2024-03-25T07:13:18;6.70;;;1.92;;
64653;SDS011;51065;48.884;12.598;2024-03-25T07:15:43;6.95;;;2.13;;
64653;SDS011;51065;48.884;12.598;2024-03-25T07:18:09;5.25;;;1.83;;
64653;SDS011;51065;48.884;12.598;2024-03-25T07:20:41;3.80;;;1.83;;
64653;SDS011;51065;48.884;12.598;2024-03-25T07:25:34;3.60;;;2.05;;
64653;SDS011;51065;48.884;12.598;2024-03-25T07:28:01;5.72;;;2.10;;
64653;SDS011;51065;48.884;12.598;2024-03-25T07:30:27;6.32;;;1.85;;
64653;SDS011;51065;48.884;12.598;2024-03-25T07:32:53;8.25;;;2.20;;
64653;SDS011;51065;48.884;12.598;2024-03-25T07:35:19;5.35;;;1.83;;
64653;SDS011;51065;48.884;12.598;2024-03-25T07:37:45;4.80;;;1.95;;
64653;SDS011;51065;48.884;12.598;2024-03-25T07:40:11;3.28;;;1.73;;
64653;SDS011;51065;48.884;12.598;2024-03-25T07:42:37;3.65;;;1.95;;
64653;SDS011;51065;48.884;12.598;2024-03-25T07:45:03;6.70;;;2.17;;
64653;SDS011;51065;48.884;12.598;2024-03-25T07:47:31;3.63;;;1.90;;
64653;SDS011;51065;48.884;12.598;2024-03-25T07:49:56;3.60;;;2.10;;
64653;SDS011;51065;48.884;12.598;2024-03-25T07:52:22;4.43;;;1.73;;
64653;SDS011;51065;48.884;12.598;2024-03-25T07:54:48;3.88;;;1.92;;
64653;SDS011;51065;48.884;12.598;2024-03-25T07:57:13;6.10;;;1.80;;
64653;SDS011;51065;48.884;12.598;2024-03-25T07:59:39;4.97;;;1.90;;
64653;SDS011;51065;48.884;12.598;2024-03-25T08:02:05;5.10;;;1.98;;
64653;SDS011;51065;48.884;12.598;2024-03-25T08:04:30;4.95;;;1.80;;
64653;SDS011;51065;48.884;12.598;2024-03-25T08:06:56;6.35;;;2.03;;
64653;SDS011;51065;48.884;12.598;2024-03-25T08:09:21;4.25;;;1.52;;
64653;SDS011;51065;48.884;12.598;2024-03-25T08:11:47;3.65;;;1.58;;
64653;SDS011;51065;48.884;12.598;2024-03-25T08:14:12;4.57;;;1.88;;
64653;SDS011;51065;48.884;12.598;2024-03-25T08:16:38;5.57;;;2.05;;
64653;SDS011;51065;48.884;12.598;2024-03-25T08:19:03;8.35;;;2.35;;
64653;SDS011;51065;48.884;12.598;2024-03-25T08:21:29;2.80;;;1.50;;
64653;SDS011;51065;48.884;12.598;2024-03-25T08:23:55;3.67;;;1.58;;
64653;SDS011;51065;48.884;12.598;2024-03-25T08:26:20;4.35;;;1.63;;
64653;SDS011;51065;48.884;12.598;2024-03-25T08:28:46;2.55;;;1.40;;
64653;SDS011;51065;48.884;12.598;2024-03-25T08:31:13;2.83;;;1.50;;
64653;SDS011;51065;48.884;12.598;2024-03-25T08:33:39;2.22;;;1.45;;
64653;SDS011;51065;48.884;12.598;2024-03-25T08:36:05;5.22;;;1.58;;
64653;SDS011;51065;48.884;12.598;2024-03-25T08:38:31;2.65;;;1.30;;
64653;SDS011;51065;48.884;12.598;2024-03-25T08:40:56;4.20;;;1.52;;
64653;SDS011;51065;48.884;12.598;2024-03-25T08:43:22;4.28;;;1.58;;
64653;SDS011;51065;48.884;12.598;2024-03-25T08:45:47;2.92;;;1.40;;
64653;SDS011;51065;48.884;12.598;2024-03-25T08:48:13;3.17;;;1.48;;
64653;SDS011;51065;48.884;12.598;2024-03-25T08:50:38;3.10;;;1.60;;
64653;SDS011;51065;48.884;12.598;2024-03-25T08:53:04;4.15;;;1.88;;
64653;SDS011;51065;48.884;12.598;2024-03-25T08:55:30;4.55;;;2.05;;
64653;SDS011;51065;48.884;12.598;2024-03-25T08:57:56;3.83;;;2.10;;
64653;SDS011;51065;48.884;12.598;2024-03-25T09:00:23;2.58;;;1.85;;
64653;SDS011;51065;48.884;12.598;2024-03-25T09:02:50;4.47;;;1.98;;
64653;SDS011;51065;48.884;12.598;2024-03-25T09:05:15;4.57;;;1.92;;
64653;SDS011;51065;48.884;12.598;2024-03-25T09:07:44;2.63;;;1.73;;
64653;SDS011;51065;48.884;12.598;2024-03-25T09:10:09;2.28;;;1.70;;
64653;SDS011;51065;48.884;12.598;2024-03-25T09:13:11;6.55;;;1.98;;
64653;SDS011;51065;48.884;12.598;2024-03-25T09:15:37;4.50;;;1.60;;
64653;SDS011;51065;48.884;12.598;2024-03-25T09:18:02;2.72;;;1.70;;
64653;SDS011;51065;48.884;12.598;2024-03-25T09:20:28;4.35;;;1.95;;
64653;SDS011;51065;48.884;12.598;2024-03-25T09:22:53;3.70;;;1.88;;
64653;SDS011;51065;48.884;12.598;2024-03-25T09:25:19;3.83;;;2.08;;
64653;SDS011;51065;48.884;12.598;2024-03-25T09:27:48;3.38;;;1.63;;
64653;SDS011;51065;48.884;12.598;2024-03-25T09:30:15;3.25;;;1.85;;
64653;SDS011;51065;48.884;12.598;2024-03-25T09:32:41;2.70;;;1.55;;
64653;SDS011;51065;48.884;12.598;2024-03-25T09:35:07;5.20;;;1.50;;
64653;SDS011;51065;48.884;12.598;2024-03-25T09:37:34;4.00;;;1.70;;
64653;SDS011;51065;48.884;12.598;2024-03-25T09:39:59;3.10;;;1.80;;
64653;SDS011;51065;48.884;12.598;2024-03-25T09:42:25;4.43;;;1.35;;
64653;SDS011;51065;48.884;12.598;2024-03-25T09:44:55;4.05;;;1.40;;
64653;SDS011;51065;48.884;12.598;2024-03-25T09:47:21;3.67;;;1.58;;
64653;SDS011;51065;48.884;12.598;2024-03-25T09:49:47;2.40;;;1.45;;
64653;SDS011;51065;48.884;12.598;2024-03-25T09:52:14;3.33;;;1.77;;
64653;SDS011;51065;48.884;12.598;2024-03-25T09:54:40;3.15;;;1.73;;
64653;SDS011;51065;48.884;12.598;2024-03-25T09:57:06;6.40;;;1.75;;
64653;SDS011;51065;48.884;12.598;2024-03-25T09:59:33;1.50;;;1.08;;
64653;SDS011;51065;48.884;12.598;2024-03-25T10:01:59;2.45;;;1.40;;
64653;SDS011;51065;48.884;12.598;2024-03-25T10:04:26;4.18;;;1.90;;
64653;SDS011;51065;48.884;12.598;2024-03-25T10:06:52;4.72;;;1.42;;
64653;SDS011;51065;48.884;12.598;2024-03-25T10:09:21;5.57;;;1.55;;
64653;SDS011;51065;48.884;12.598;2024-03-25T10:11:47;2.97;;;1.60;;
64653;SDS011;51065;48.884;12.598;2024-03-25T10:14:17;2.05;;;1.35;;
64653;SDS011;51065;48.884;12.598;2024-03-25T10:16:43;2.53;;;1.50;;
64653;SDS011;51065;48.884;12.598;2024-03-25T10:19:09;1.95;;;1.25;;
64653;SDS011;51065;48.884;12.598;2024-03-25T10:21:35;3.60;;;1.40;;
64653;SDS011;51065;48.884;12.598;2024-03-25T10:24:01;2.03;;;1.45;;
64653;SDS011;51065;48.884;12.598;2024-03-25T10:26:30;2.97;;;1.08;;
64653;SDS011;51065;48.884;12.598;2024-03-25T10:29:06;2.65;;;1.08;;
64653;SDS011;51065;48.884;12.598;2024-03-25T10:31:33;3.00;;;1.38;;
64653;SDS011;51065;48.884;12.598;2024-03-25T10:33:59;1.75;;;1.30;;
64653;SDS011;51065;48.884;12.598;2024-03-25T10:36:25;3.10;;;1.30;;
64653;SDS011;51065;48.884;12.598;2024-03-25T10:38:54;6.28;;;1.45;;
64653;SDS011;51065;48.884;12.598;2024-03-25T10:41:21;1.48;;;1.10;;
64653;SDS011;51065;48.884;12.598;2024-03-25T10:43:48;2.75;;;1.35;;
64653;SDS011;51065;48.884;12.598;2024-03-25T10:46:20;1.75;;;1.25;;
64653;SDS011;51065;48.884;12.598;2024-03-25T10:51:46;2.25;;;1.10;;
64653;SDS011;51065;48.884;12.598;2024-03-25T10:54:13;2.80;;;1.35;;
64653;SDS011;51065;48.884;12.598;2024-03-25T10:56:39;1.95;;;1.20;;
64653;SDS011;51065;48.884;12.598;2024-03-25T10:59:05;2.13;;;0.90;;
64653;SDS011;51065;48.884;12.598;2024-03-25T11:01:34;2.75;;;0.90;;
64653;SDS011;51065;48.884;12.598;2024-03-25T11:04:00;3.63;;;1.08;;
64653;SDS011;51065;48.884;12.598;2024-03-25T11:06:26;3.63;;;0.98;;
64653;SDS011;51065;48.884;12.598;2024-03-25T11:08:58;1.35;;;0.95;;
64653;SDS011;51065;48.884;12.598;2024-03-25T11:11:30;3.75;;;0.88;;
64653;SDS011;51065;48.884;12.598;2024-03-25T11:13:59;2.30;;;0.90;;
64653;SDS011;51065;48.884;12.598;2024-03-25T11:16:31;2.88;;;1.40;;
64653;SDS011;51065;48.884;12.598;2024-03-25T11:19:00;2.92;;;1.02;;
64653;SDS011;51065;48.884;12.598;2024-03-25T11:21:28;3.13;;;1.15;;
64653;SDS011;51065;48.884;12.598;2024-03-25T11:23:54;2.45;;;0.95;;
64653;SDS011;51065;48.884;12.598;2024-03-25T11:26:20;2.10;;;1.00;;
64653;SDS011;51065;48.884;12.598;2024-03-25T11:28:48;3.95;;;1.25;;
64653;SDS011;51065;48.884;12.598;2024-03-25T11:31:14;1.95;;;0.93;;
64653;SDS011;51065;48.884;12.598;2024-03-25T11:33:40;2.05;;;1.08;;
64653;SDS011;51065;48.884;12.598;2024-03-25T11:36:06;5.07;;;0.90;;
64653;SDS011;51065;48.884;12.598;2024-03-25T11:38:33;1.80;;;0.90;;
64653;SDS011;51065;48.884;12.598;2024-03-25T11:40:59;2.47;;;1.00;;
64653;SDS011;51065;48.884;12.598;2024-03-25T11:43:25;3.05;;;1.20;;
64653;SDS011;51065;48.884;12.598;2024-03-25T11:45:50;3.60;;;1.20;;
64653;SDS011;51065;48.884;12.598;2024-03-25T11:48:18;2.67;;;1.10;;
64653;SDS011;51065;48.884;12.598;2024-03-25T11:50:47;3.20;;;1.08;;
64653;SDS011;51065;48.884;12.598;2024-03-25T11:53:13;4.43;;;1.15;;
64653;SDS011;51065;48.884;12.598;2024-03-25T11:55:40;2.72;;;0.90;;
64653;SDS011;51065;48.884;12.598;2024-03-25T11:58:07;0.85;;;0.70;;
64653;SDS011;51065;48.884;12.598;2024-03-25T12:00:33;3.00;;;1.25;;
64653;SDS011;51065;48.884;12.598;2024-03-25T12:02:58;2.22;;;1.02;;
64653;SDS011;51065;48.884;12.598;2024-03-25T12:05:25;1.25;;;0.70;;
64653;SDS011;51065;48.884;12.598;2024-03-25T12:07:50;1.77;;;0.98;;
64653;SDS011;51065;48.884;12.598;2024-03-25T12:10:16;2.17;;;0.80;;
64653;SDS011;51065;48.884;12.598;2024-03-25T12:13:01;2.15;;;1.08;;
64653;SDS011;51065;48.884;12.598;2024-03-25T12:15:27;2.03;;;1.00;;
64653;SDS011;51065;48.884;12.598;2024-03-25T12:17:53;2.28;;;0.93;;
64653;SDS011;51065;48.884;12.598;2024-03-25T12:20:19;2.35;;;1.08;;
64653;SDS011;51065;48.884;12.598;2024-03-25T12:22:45;2.28;;;1.30;;
64653;SDS011;51065;48.884;12.598;2024-03-25T12:25:10;1.25;;;0.90;;
64653;SDS011;51065;48.884;12.598;2024-03-25T12:27:37;3.83;;;0.98;;
64653;SDS011;51065;48.884;12.598;2024-03-25T12:30:08;2.45;;;1.00;;
64653;SDS011;51065;48.884;12.598;2024-03-25T12:32:38;2.75;;;1.30;;
64653;SDS011;51065;48.884;12.598;2024-03-25T12:35:15;2.25;;;1.27;;
64653;SDS011;51065;48.884;12.598;2024-03-25T12:37:42;1.65;;;0.95;;
64653;SDS011;51065;48.884;12.598;2024-03-25T12:40:10;1.85;;;1.27;;
64653;SDS011;51065;48.884;12.598;2024-03-25T12:42:36;4.32;;;0.95;;
64653;SDS011;51065;48.884;12.598;2024-03-25T12:45:04;1.30;;;1.00;;
64653;SDS011;51065;48.884;12.598;2024-03-25T12:47:30;2.88;;;1.20;;
64653;SDS011;51065;48.884;12.598;2024-03-25T12:49:58;1.05;;;0.90;;
64653;SDS011;51065;48.884;12.598;2024-03-25T12:52:24;3.10;;;1.30;;
64653;SDS011;51065;48.884;12.598;2024-03-25T12:54:50;2.28;;;1.10;;
64653;SDS011;51065;48.884;12.598;2024-03-25T12:57:16;4.22;;;1.38;;
64653;SDS011;51065;48.884;12.598;2024-03-25T12:59:42;3.05;;;1.15;;
64653;SDS011;51065;48.884;12.598;2024-03-25T13:02:09;1.23;;;1.05;;
64653;SDS011;51065;48.884;12.598;2024-03-25T13:04:37;3.22;;;1.20;;
64653;SDS011;51065;48.884;12.598;2024-03-25T13:07:04;3.90;;;1.50;;
64653;SDS011;51065;48.884;12.598;2024-03-25T13:09:30;2.30;;;1.33;;
64653;SDS011;51065;48.884;12.598;2024-03-25T13:11:56;3.33;;;1.35;;
64653;SDS011;51065;48.884;12.598;2024-03-25T13:14:22;1.13;;;1.02;;
64653;SDS011;51065;48.884;12.598;2024-03-25T13:16:48;2.30;;;1.00;;
64653;SDS011;51065;48.884;12.598;2024-03-25T13:19:14;5.05;;;1.17;;
64653;SDS011;51065;48.884;12.598;2024-03-25T13:21:40;3.33;;;1.45;;
64653;SDS011;51065;48.884;12.598;2024-03-25T13:24:06;4.07;;;1.40;;
64653;SDS011;51065;48.884;12.598;2024-03-25T13:26:32;2.33;;;1.23;;
64653;SDS011;51065;48.884;12.598;2024-03-25T13:28:57;3.35;;;1.40;;
64653;SDS011;51065;48.884;12.598;2024-03-25T13:31:23;2.53;;;1.38;;
64653;SDS011;51065;48.884;12.598;2024-03-25T13:33:49;2.90;;;1.30;;
64653;SDS011;51065;48.884;12.598;2024-03-25T13:36:16;3.53;;;1.60;;
64653;SDS011;51065;48.884;12.598;2024-03-25T13:38:42;4.05;;;1.30;;
64653;SDS011;51065;48.884;12.598;2024-03-25T13:41:08;2.70;;;1.40;;
64653;SDS011;51065;48.884;12.598;2024-03-25T13:43:33;2.00;;;1.15;;
64653;SDS011;51065;48.884;12.598;2024-03-25T13:45:59;1.50;;;1.08;;
64653;SDS011;51065;48.884;12.598;2024-03-25T13:48:24;3.33;;;1.20;;
64653;SDS011;51065;48.884;12.598;2024-03-25T13:50:53;3.17;;;1.40;;
64653;SDS011;51065;48.884;12.598;2024-03-25T13:53:19;5.53;;;1.73;;
64653;SDS011;51065;48.884;12.598;2024-03-25T13:55:45;3.47;;;1.50;;
64653;SDS011;51065;48.884;12.598;2024-03-25T13:58:10;1.40;;;1.30;;
64653;SDS011;51065;48.884;12.598;2024-03-25T14:00:38;1.58;;;1.25;;
64653;SDS011;51065;48.884;12.598;2024-03-25T14:03:04;3.92;;;1.55;;
64653;SDS011;51065;48.884;12.598;2024-03-25T14:05:30;2.47;;;1.35;;
64653;SDS011;51065;48.884;12.598;2024-03-25T14:07:56;1.40;;;1.30;;
64653;SDS011;51065;48.884;12.598;2024-03-25T14:10:21;2.70;;;1.40;;
64653;SDS011;51065;48.884;12.598;2024-03-25T14:12:47;3.95;;;1.20;;
64653;SDS011;51065;48.884;12.598;2024-03-25T14:15:12;3.63;;;1.52;;
64653;SDS011;51065;48.884;12.598;2024-03-25T14:17:38;2.50;;;1.42;;
64653;SDS011;51065;48.884;12.598;2024-03-25T14:20:04;3.45;;;1.80;;
64653;SDS011;51065;48.884;12.598;2024-03-25T14:22:31;3.25;;;1.40;;
64653;SDS011;51065;48.884;12.598;2024-03-25T14:24:58;1.48;;;1.10;;
64653;SDS011;51065;48.884;12.598;2024-03-25T14:27:24;1.65;;;1.20;;
64653;SDS011;51065;48.884;12.598;2024-03-25T14:29:50;2.10;;;1.13;;
64653;SDS011;51065;48.884;12.598;2024-03-25T14:32:20;1.38;;;1.13;;
64653;SDS011;51065;48.884;12.598;2024-03-25T14:37:12;3.03;;;1.42;;